sensor_id;sensor_type;location;lat;lon;timestamp;temperature;humidity
46438;DHT22;32137;48.728;9.142;2023-07-24T00:00:37;20.20;99.90
46438;DHT22;32137;48.728;9.142;2023-07-24T00:03:04;20.20;99.90
46438;DHT22;32137;48.728;9.142;2023-07-24T00:05:30;20.20;99.90
46438;DHT22;32137;48.728;9.142;2023-07-24T00:07:55;20.20;99.90
46438;DHT22;32137;48.728;9.142;2023-07-24T00:10:21;20.10;99.90
46438;DHT22;32137;48.728;9.142;2023-07-24T00:12:46;20.10;99.90
46438;DHT22;32137;48.728;9.142;2023-07-24T00:15:12;20.10;99.90
46438;DHT22;32137;48.728;9.142;2023-07-24T00:17:37;20.10;99.90
46438;DHT22;32137;48.728;9.142;2023-07-24T00:20:03;20.10;1.00
46438;DHT22;32137;48.728;9.142;2023-07-24T00:22:28;20.10;99.90
46438;DHT22;32137;48.728;9.142;2023-07-24T00:24:54;20.00;99.90
46438;DHT22;32137;48.728;9.142;2023-07-24T00:27:19;19.80;99.90
46438;DHT22;32137;48.728;9.142;2023-07-24T00:29:45;19.70;99.90
46438;DHT22;32137;48.728;9.142;2023-07-24T00:32:10;19.60;99.90
46438;DHT22;32137;48.728;9.142;2023-07-24T00:34:36;19.50;99.90
46438;DHT22;32137;48.728;9.142;2023-07-24T00:37:01;19.50;99.90
46438;DHT22;32137;48.728;9.142;2023-07-24T00:39:27;19.40;99.90
46438;DHT22;32137;48.728;9.142;2023-07-24T00:41:54;19.40;99.90
46438;DHT22;32137;48.728;9.142;2023-07-24T00:44:20;19.50;19.20
46438;DHT22;32137;48.728;9.142;2023-07-24T00:46:45;19.50;50.60
46438;DHT22;32137;48.728;9.142;2023-07-24T00:49:11;19.50;32.30
46438;DHT22;32137;48.728;9.142;2023-07-24T00:51:37;19.50;45.70
46438;DHT22;32137;48.728;9.142;2023-07-24T00:54:02;19.50;47.80
46438;DHT22;32137;48.728;9.142;2023-07-24T00:56:28;19.50;99.90
46438;DHT22;32137;48.728;9.142;2023-07-24T00:58:54;19.50;99.90
46438;DHT22;32137;48.728;9.142;2023-07-24T01:01:23;19.40;99.90
46438;DHT22;32137;48.728;9.142;2023-07-24T01:03:49;19.40;20.10
46438;DHT22;32137;48.728;9.142;2023-07-24T01:06:14;19.40;73.00
46438;DHT22;32137;48.728;9.142;2023-07-24T01:08:40;19.40;15.40
46438;DHT22;32137;48.728;9.142;2023-07-24T01:11:10;19.30;3.40
46438;DHT22;32137;48.728;9.142;2023-07-24T01:13:38;19.30;1.00
46438;DHT22;32137;48.728;9.142;2023-07-24T01:16:09;19.30;1.00
46438;DHT22;32137;48.728;9.142;2023-07-24T01:18:35;19.30;1.00
46438;DHT22;32137;48.728;9.142;2023-07-24T01:21:02;19.30;1.00
46438;DHT22;32137;48.728;9.142;2023-07-24T01:23:38;19.30;1.00
46438;DHT22;32137;48.728;9.142;2023-07-24T01:26:05;19.20;1.00
46438;DHT22;32137;48.728;9.142;2023-07-24T01:28:32;19.20;1.00
46438;DHT22;32137;48.728;9.142;2023-07-24T01:30:57;19.10;1.00
46438;DHT22;32137;48.728;9.142;2023-07-24T01:33:23;19.10;1.00
46438;DHT22;32137;48.728;9.142;2023-07-24T01:35:49;19.10;1.00
46438;DHT22;32137;48.728;9.142;2023-07-24T01:38:16;19.00;1.00
46438;DHT22;32137;48.728;9.142;2023-07-24T01:40:42;19.00;1.00
46438;DHT22;32137;48.728;9.142;2023-07-24T01:43:08;18.90;1.00
46438;DHT22;32137;48.728;9.142;2023-07-24T01:45:33;19.00;1.00
46438;DHT22;32137;48.728;9.142;2023-07-24T01:47:59;18.90;1.00
46438;DHT22;32137;48.728;9.142;2023-07-24T01:50:25;18.90;1.00
46438;DHT22;32137;48.728;9.142;2023-07-24T01:52:50;18.90;1.00
46438;DHT22;32137;48.728;9.142;2023-07-24T01:55:16;18.90;1.00
46438;DHT22;32137;48.728;9.142;2023-07-24T01:57:41;18.90;1.00
46438;DHT22;32137;48.728;9.142;2023-07-24T02:00:07;18.90;1.00
46438;DHT22;32137;48.728;9.142;2023-07-24T02:02:32;18.80;1.00
46438;DHT22;32137;48.728;9.142;2023-07-24T02:04:58;18.80;1.00
46438;DHT22;32137;48.728;9.142;2023-07-24T02:07:25;18.80;1.00
46438;DHT22;32137;48.728;9.142;2023-07-24T02:09:51;18.80;1.00
46438;DHT22;32137;48.728;9.142;2023-07-24T02:12:16;18.70;1.00
46438;DHT22;32137;48.728;9.142;2023-07-24T02:14:42;18.80;99.90
46438;DHT22;32137;48.728;9.142;2023-07-24T02:17:07;18.80;99.90
46438;DHT22;32137;48.728;9.142;2023-07-24T02:19:33;18.70;99.90
46438;DHT22;32137;48.728;9.142;2023-07-24T02:21:58;18.70;99.90
46438;DHT22;32137;48.728;9.142;2023-07-24T02:24:24;18.70;99.90
46438;DHT22;32137;48.728;9.142;2023-07-24T02:26:49;18.70;99.90
46438;DHT22;32137;48.728;9.142;2023-07-24T02:29:14;18.60;1.00
46438;DHT22;32137;48.728;9.142;2023-07-24T02:31:40;18.60;1.00
46438;DHT22;32137;48.728;9.142;2023-07-24T02:34:06;18.60;1.00
46438;DHT22;32137;48.728;9.142;2023-07-24T02:36:31;18.60;1.00
46438;DHT22;32137;48.728;9.142;2023-07-24T02:38:57;18.50;1.00
46438;DHT22;32137;48.728;9.142;2023-07-24T02:41:22;18.50;1.00
46438;DHT22;32137;48.728;9.142;2023-07-24T02:43:47;18.60;1.00
46438;DHT22;32137;48.728;9.142;2023-07-24T02:46:13;18.50;1.00
46438;DHT22;32137;48.728;9.142;2023-07-24T02:48:38;18.50;1.00
46438;DHT22;32137;48.728;9.142;2023-07-24T02:54:07;18.50;1.00
46438;DHT22;32137;48.728;9.142;2023-07-24T02:56:32;18.50;1.00
46438;DHT22;32137;48.728;9.142;2023-07-24T02:58:58;18.40;1.00
46438;DHT22;32137;48.728;9.142;2023-07-24T03:01:23;18.40;1.00
46438;DHT22;32137;48.728;9.142;2023-07-24T03:03:49;18.40;1.00
46438;DHT22;32137;48.728;9.142;2023-07-24T03:06:14;18.40;1.00
46438;DHT22;32137;48.728;9.142;2023-07-24T03:08:40;18.40;1.00
46438;DHT22;32137;48.728;9.142;2023-07-24T03:11:05;18.30;1.00
46438;DHT22;32137;48.728;9.142;2023-07-24T03:13:31;18.30;1.00
46438;DHT22;32137;48.728;9.142;2023-07-24T03:15:57;18.30;1.00
46438;DHT22;32137;48.728;9.142;2023-07-24T03:18:23;18.20;1.00
46438;DHT22;32137;48.728;9.142;2023-07-24T03:20:48;18.30;1.00
46438;DHT22;32137;48.728;9.142;2023-07-24T03:23:14;18.20;1.00
46438;DHT22;32137;48.728;9.142;2023-07-24T03:25:40;18.20;1.00
46438;DHT22;32137;48.728;9.142;2023-07-24T03:28:05;18.20;1.00
46438;DHT22;32137;48.728;9.142;2023-07-24T03:30:31;18.10;1.00
46438;DHT22;32137;48.728;9.142;2023-07-24T03:32:56;18.10;1.00
46438;DHT22;32137;48.728;9.142;2023-07-24T03:35:22;18.10;1.00
46438;DHT22;32137;48.728;9.142;2023-07-24T03:37:47;18.10;1.00
46438;DHT22;32137;48.728;9.142;2023-07-24T03:40:13;18.10;1.00
46438;DHT22;32137;48.728;9.142;2023-07-24T03:42:39;18.10;1.00
46438;DHT22;32137;48.728;9.142;2023-07-24T03:45:04;18.00;1.00
46438;DHT22;32137;48.728;9.142;2023-07-24T03:47:30;18.00;1.00
46438;DHT22;32137;48.728;9.142;2023-07-24T03:49:55;18.00;1.00
46438;DHT22;32137;48.728;9.142;2023-07-24T03:52:21;18.00;1.00
46438;DHT22;32137;48.728;9.142;2023-07-24T03:54:46;18.00;1.00
46438;DHT22;32137;48.728;9.142;2023-07-24T03:57:12;18.10;1.00
46438;DHT22;32137;48.728;9.142;2023-07-24T03:59:37;18.10;1.00
46438;DHT22;32137;48.728;9.142;2023-07-24T04:02:03;18.10;1.00
46438;DHT22;32137;48.728;9.142;2023-07-24T04:04:28;18.20;99.90
46438;DHT22;32137;48.728;9.142;2023-07-24T04:06:54;18.20;99.90
46438;DHT22;32137;48.728;9.142;2023-07-24T04:09:19;18.30;99.90
46438;DHT22;32137;48.728;9.142;2023-07-24T04:11:44;18.30;99.90
46438;DHT22;32137;48.728;9.142;2023-07-24T04:14:10;18.30;1.00
46438;DHT22;32137;48.728;9.142;2023-07-24T04:16:36;18.30;99.90
46438;DHT22;32137;48.728;9.142;2023-07-24T04:19:01;18.30;99.90
46438;DHT22;32137;48.728;9.142;2023-07-24T04:21:27;18.30;1.00
46438;DHT22;32137;48.728;9.142;2023-07-24T04:23:52;18.30;1.00
46438;DHT22;32137;48.728;9.142;2023-07-24T04:26:18;18.20;99.90
46438;DHT22;32137;48.728;9.142;2023-07-24T04:28:43;18.30;99.90
46438;DHT22;32137;48.728;9.142;2023-07-24T04:31:09;18.30;99.90
46438;DHT22;32137;48.728;9.142;2023-07-24T04:33:34;18.30;99.90
46438;DHT22;32137;48.728;9.142;2023-07-24T04:35:59;18.40;99.90
46438;DHT22;32137;48.728;9.142;2023-07-24T04:38:25;18.40;99.90
46438;DHT22;32137;48.728;9.142;2023-07-24T04:40:51;18.40;99.90
46438;DHT22;32137;48.728;9.142;2023-07-24T04:43:16;18.40;99.90
46438;DHT22;32137;48.728;9.142;2023-07-24T04:45:41;18.50;99.90
46438;DHT22;32137;48.728;9.142;2023-07-24T04:48:07;18.50;99.90
46438;DHT22;32137;48.728;9.142;2023-07-24T04:50:32;18.50;99.90
46438;DHT22;32137;48.728;9.142;2023-07-24T04:52:58;18.50;99.90
46438;DHT22;32137;48.728;9.142;2023-07-24T04:55:24;18.50;99.90
46438;DHT22;32137;48.728;9.142;2023-07-24T04:57:49;18.50;99.90
46438;DHT22;32137;48.728;9.142;2023-07-24T05:00:15;18.50;1.00
46438;DHT22;32137;48.728;9.142;2023-07-24T05:02:40;18.50;1.00
46438;DHT22;32137;48.728;9.142;2023-07-24T05:05:06;18.50;1.00
46438;DHT22;32137;48.728;9.142;2023-07-24T05:07:31;18.60;1.00
46438;DHT22;32137;48.728;9.142;2023-07-24T05:09:57;18.60;1.00
46438;DHT22;32137;48.728;9.142;2023-07-24T05:12:23;18.60;1.00
46438;DHT22;32137;48.728;9.142;2023-07-24T05:14:48;18.70;1.00
46438;DHT22;32137;48.728;9.142;2023-07-24T05:17:14;18.70;1.00
46438;DHT22;32137;48.728;9.142;2023-07-24T05:19:39;18.70;99.90
46438;DHT22;32137;48.728;9.142;2023-07-24T05:22:05;18.70;99.90
46438;DHT22;32137;48.728;9.142;2023-07-24T05:24:31;18.80;1.00
46438;DHT22;32137;48.728;9.142;2023-07-24T05:26:56;18.80;1.00
46438;DHT22;32137;48.728;9.142;2023-07-24T05:29:21;18.80;1.00
46438;DHT22;32137;48.728;9.142;2023-07-24T05:31:47;18.80;1.00
46438;DHT22;32137;48.728;9.142;2023-07-24T05:34:13;18.90;1.00
46438;DHT22;32137;48.728;9.142;2023-07-24T05:36:39;18.90;1.00
46438;DHT22;32137;48.728;9.142;2023-07-24T05:39:05;19.00;1.00
46438;DHT22;32137;48.728;9.142;2023-07-24T05:41:30;19.00;1.00
46438;DHT22;32137;48.728;9.142;2023-07-24T05:43:56;19.00;1.00
46438;DHT22;32137;48.728;9.142;2023-07-24T05:46:21;19.10;1.00
46438;DHT22;32137;48.728;9.142;2023-07-24T05:48:47;19.10;99.90
46438;DHT22;32137;48.728;9.142;2023-07-24T05:51:13;19.10;99.90
46438;DHT22;32137;48.728;9.142;2023-07-24T05:53:38;19.20;99.90
46438;DHT22;32137;48.728;9.142;2023-07-24T05:56:04;19.10;99.90
46438;DHT22;32137;48.728;9.142;2023-07-24T05:58:29;19.10;99.90
46438;DHT22;32137;48.728;9.142;2023-07-24T06:00:55;19.20;99.90
46438;DHT22;32137;48.728;9.142;2023-07-24T06:03:23;19.20;99.90
46438;DHT22;32137;48.728;9.142;2023-07-24T06:05:53;19.20;99.90
46438;DHT22;32137;48.728;9.142;2023-07-24T06:08:19;19.20;99.90
46438;DHT22;32137;48.728;9.142;2023-07-24T06:10:45;19.20;99.90
46438;DHT22;32137;48.728;9.142;2023-07-24T06:13:11;19.20;99.90
46438;DHT22;32137;48.728;9.142;2023-07-24T06:15:36;19.30;99.90
46438;DHT22;32137;48.728;9.142;2023-07-24T06:18:02;19.30;99.90
46438;DHT22;32137;48.728;9.142;2023-07-24T06:20:27;19.30;99.90
46438;DHT22;32137;48.728;9.142;2023-07-24T06:22:53;19.30;99.90
46438;DHT22;32137;48.728;9.142;2023-07-24T06:25:18;19.30;99.90
46438;DHT22;32137;48.728;9.142;2023-07-24T06:27:44;19.40;99.90
46438;DHT22;32137;48.728;9.142;2023-07-24T06:30:09;19.30;99.90
46438;DHT22;32137;48.728;9.142;2023-07-24T06:32:35;19.40;99.90
46438;DHT22;32137;48.728;9.142;2023-07-24T06:35:00;19.40;99.90
46438;DHT22;32137;48.728;9.142;2023-07-24T06:37:25;19.50;99.90
46438;DHT22;32137;48.728;9.142;2023-07-24T06:39:51;19.50;99.90
46438;DHT22;32137;48.728;9.142;2023-07-24T06:42:16;19.50;99.90
46438;DHT22;32137;48.728;9.142;2023-07-24T06:44:42;19.60;99.90
46438;DHT22;32137;48.728;9.142;2023-07-24T06:47:07;19.70;99.90
46438;DHT22;32137;48.728;9.142;2023-07-24T06:49:33;19.70;99.90
46438;DHT22;32137;48.728;9.142;2023-07-24T06:51:58;19.70;99.90
46438;DHT22;32137;48.728;9.142;2023-07-24T06:54:24;19.80;99.90
46438;DHT22;32137;48.728;9.142;2023-07-24T06:56:49;19.80;99.90
46438;DHT22;32137;48.728;9.142;2023-07-24T06:59:15;19.80;99.90
46438;DHT22;32137;48.728;9.142;2023-07-24T07:01:40;19.80;99.90
46438;DHT22;32137;48.728;9.142;2023-07-24T07:04:05;19.80;99.90
46438;DHT22;32137;48.728;9.142;2023-07-24T07:06:31;19.80;99.90
46438;DHT22;32137;48.728;9.142;2023-07-24T07:08:56;19.80;99.90
46438;DHT22;32137;48.728;9.142;2023-07-24T07:11:22;19.90;99.90
46438;DHT22;32137;48.728;9.142;2023-07-24T07:13:47;20.00;99.90
46438;DHT22;32137;48.728;9.142;2023-07-24T07:16:13;20.00;99.90
46438;DHT22;32137;48.728;9.142;2023-07-24T07:18:38;20.00;99.90
46438;DHT22;32137;48.728;9.142;2023-07-24T07:21:04;20.00;99.90
46438;DHT22;32137;48.728;9.142;2023-07-24T07:23:29;20.00;99.90
46438;DHT22;32137;48.728;9.142;2023-07-24T07:25:54;20.10;99.90
46438;DHT22;32137;48.728;9.142;2023-07-24T07:28:20;20.10;99.90
46438;DHT22;32137;48.728;9.142;2023-07-24T07:30:46;20.10;99.90
46438;DHT22;32137;48.728;9.142;2023-07-24T07:33:12;20.10;99.90
46438;DHT22;32137;48.728;9.142;2023-07-24T07:35:37;20.10;99.90
46438;DHT22;32137;48.728;9.142;2023-07-24T07:38:03;20.10;99.90
46438;DHT22;32137;48.728;9.142;2023-07-24T07:40:28;20.10;99.90
46438;DHT22;32137;48.728;9.142;2023-07-24T07:42:54;20.20;99.90
46438;DHT22;32137;48.728;9.142;2023-07-24T07:45:20;20.20;99.90
46438;DHT22;32137;48.728;9.142;2023-07-24T07:47:46;20.30;99.90
46438;DHT22;32137;48.728;9.142;2023-07-24T07:50:12;20.40;99.90
46438;DHT22;32137;48.728;9.142;2023-07-24T07:52:38;20.40;99.90
46438;DHT22;32137;48.728;9.142;2023-07-24T07:55:03;20.40;99.90
46438;DHT22;32137;48.728;9.142;2023-07-24T07:57:31;20.40;99.90
46438;DHT22;32137;48.728;9.142;2023-07-24T07:59:57;20.40;1.00
46438;DHT22;32137;48.728;9.142;2023-07-24T08:02:22;20.40;1.00
46438;DHT22;32137;48.728;9.142;2023-07-24T08:04:48;20.30;1.00
46438;DHT22;32137;48.728;9.142;2023-07-24T08:07:13;20.20;1.00
46438;DHT22;32137;48.728;9.142;2023-07-24T08:09:38;20.00;1.00
46438;DHT22;32137;48.728;9.142;2023-07-24T08:12:04;19.90;99.90
46438;DHT22;32137;48.728;9.142;2023-07-24T08:14:30;19.50;99.90
46438;DHT22;32137;48.728;9.142;2023-07-24T08:16:55;19.40;1.00
46438;DHT22;32137;48.728;9.142;2023-07-24T08:19:21;19.00;1.00
46438;DHT22;32137;48.728;9.142;2023-07-24T08:21:47;18.40;99.90
46438;DHT22;32137;48.728;9.142;2023-07-24T08:24:12;18.10;99.90
46438;DHT22;32137;48.728;9.142;2023-07-24T08:26:37;17.90;99.90
46438;DHT22;32137;48.728;9.142;2023-07-24T08:29:03;18.20;99.90
46438;DHT22;32137;48.728;9.142;2023-07-24T08:31:29;18.30;99.90
46438;DHT22;32137;48.728;9.142;2023-07-24T08:33:55;18.00;99.90
46438;DHT22;32137;48.728;9.142;2023-07-24T08:36:20;18.00;99.90
46438;DHT22;32137;48.728;9.142;2023-07-24T08:38:46;18.70;99.90
46438;DHT22;32137;48.728;9.142;2023-07-24T08:41:13;18.70;99.90
46438;DHT22;32137;48.728;9.142;2023-07-24T08:43:40;18.80;99.90
46438;DHT22;32137;48.728;9.142;2023-07-24T08:46:06;18.50;99.90
46438;DHT22;32137;48.728;9.142;2023-07-24T08:51:09;18.30;99.90
46438;DHT22;32137;48.728;9.142;2023-07-24T08:53:42;18.20;99.90
46438;DHT22;32137;48.728;9.142;2023-07-24T08:56:08;18.20;99.90
46438;DHT22;32137;48.728;9.142;2023-07-24T08:58:34;18.90;99.90
46438;DHT22;32137;48.728;9.142;2023-07-24T09:01:00;19.00;99.90
46438;DHT22;32137;48.728;9.142;2023-07-24T09:03:26;18.70;99.90
46438;DHT22;32137;48.728;9.142;2023-07-24T09:05:52;19.40;99.90
46438;DHT22;32137;48.728;9.142;2023-07-24T09:08:39;18.70;99.90
46438;DHT22;32137;48.728;9.142;2023-07-24T09:11:04;18.70;99.90
46438;DHT22;32137;48.728;9.142;2023-07-24T09:13:29;18.70;99.90
46438;DHT22;32137;48.728;9.142;2023-07-24T09:15:55;19.40;99.90
46438;DHT22;32137;48.728;9.142;2023-07-24T09:18:21;18.90;99.90
46438;DHT22;32137;48.728;9.142;2023-07-24T09:20:47;19.20;99.90
46438;DHT22;32137;48.728;9.142;2023-07-24T09:23:13;19.50;99.90
46438;DHT22;32137;48.728;9.142;2023-07-24T09:25:39;19.00;99.90
46438;DHT22;32137;48.728;9.142;2023-07-24T09:28:15;18.80;99.90
46438;DHT22;32137;48.728;9.142;2023-07-24T09:30:41;18.70;99.90
46438;DHT22;32137;48.728;9.142;2023-07-24T09:33:07;18.50;99.90
46438;DHT22;32137;48.728;9.142;2023-07-24T09:35:33;19.20;99.90
46438;DHT22;32137;48.728;9.142;2023-07-24T09:38:02;19.20;99.90
46438;DHT22;32137;48.728;9.142;2023-07-24T09:40:28;19.10;99.90
46438;DHT22;32137;48.728;9.142;2023-07-24T09:42:53;18.80;99.90
46438;DHT22;32137;48.728;9.142;2023-07-24T09:45:19;19.30;99.90
46438;DHT22;32137;48.728;9.142;2023-07-24T09:47:44;19.40;99.90
46438;DHT22;32137;48.728;9.142;2023-07-24T09:50:10;19.30;99.90
46438;DHT22;32137;48.728;9.142;2023-07-24T09:52:36;19.00;99.90
46438;DHT22;32137;48.728;9.142;2023-07-24T09:55:07;19.30;99.90
46438;DHT22;32137;48.728;9.142;2023-07-24T09:57:35;19.00;99.90
46438;DHT22;32137;48.728;9.142;2023-07-24T10:00:01;19.10;99.90
46438;DHT22;32137;48.728;9.142;2023-07-24T10:02:27;18.80;99.90
46438;DHT22;32137;48.728;9.142;2023-07-24T10:04:53;18.80;99.90
46438;DHT22;32137;48.728;9.142;2023-07-24T10:07:19;18.90;99.90
46438;DHT22;32137;48.728;9.142;2023-07-24T10:09:47;18.70;99.90
46438;DHT22;32137;48.728;9.142;2023-07-24T10:12:14;18.70;99.90
46438;DHT22;32137;48.728;9.142;2023-07-24T10:14:41;19.20;99.90
46438;DHT22;32137;48.728;9.142;2023-07-24T10:17:07;18.90;99.90
46438;DHT22;32137;48.728;9.142;2023-07-24T10:19:36;19.30;99.90
46438;DHT22;32137;48.728;9.142;2023-07-24T10:22:03;19.20;99.90
46438;DHT22;32137;48.728;9.142;2023-07-24T10:24:29;19.30;99.90
46438;DHT22;32137;48.728;9.142;2023-07-24T10:26:55;19.10;99.90
46438;DHT22;32137;48.728;9.142;2023-07-24T10:29:23;18.90;99.90
46438;DHT22;32137;48.728;9.142;2023-07-24T10:31:52;18.90;99.90
46438;DHT22;32137;48.728;9.142;2023-07-24T10:34:17;19.00;99.90
46438;DHT22;32137;48.728;9.142;2023-07-24T10:36:43;18.90;99.90
46438;DHT22;32137;48.728;9.142;2023-07-24T10:39:15;18.80;99.90
46438;DHT22;32137;48.728;9.142;2023-07-24T10:41:40;19.40;99.90
46438;DHT22;32137;48.728;9.142;2023-07-24T10:44:06;19.30;99.90
46438;DHT22;32137;48.728;9.142;2023-07-24T10:46:35;19.70;99.90
46438;DHT22;32137;48.728;9.142;2023-07-24T10:49:01;20.10;99.90
46438;DHT22;32137;48.728;9.142;2023-07-24T10:51:28;19.50;99.90
46438;DHT22;32137;48.728;9.142;2023-07-24T10:53:54;20.20;99.90
46438;DHT22;32137;48.728;9.142;2023-07-24T10:56:19;19.60;99.90
46438;DHT22;32137;48.728;9.142;2023-07-24T10:58:45;19.90;99.90
46438;DHT22;32137;48.728;9.142;2023-07-24T11:01:10;19.90;99.90
46438;DHT22;32137;48.728;9.142;2023-07-24T11:03:36;19.50;99.90
46438;DHT22;32137;48.728;9.142;2023-07-24T11:06:02;19.50;99.90
46438;DHT22;32137;48.728;9.142;2023-07-24T11:08:28;20.20;99.90
46438;DHT22;32137;48.728;9.142;2023-07-24T11:10:54;20.20;99.90
46438;DHT22;32137;48.728;9.142;2023-07-24T11:13:21;19.90;99.90
46438;DHT22;32137;48.728;9.142;2023-07-24T11:15:47;19.30;99.90
46438;DHT22;32137;48.728;9.142;2023-07-24T11:18:13;19.60;99.90
46438;DHT22;32137;48.728;9.142;2023-07-24T11:20:49;20.40;99.90
46438;DHT22;32137;48.728;9.142;2023-07-24T11:23:15;20.40;99.90
46438;DHT22;32137;48.728;9.142;2023-07-24T11:25:40;19.80;99.90
46438;DHT22;32137;48.728;9.142;2023-07-24T11:28:06;20.40;99.90
46438;DHT22;32137;48.728;9.142;2023-07-24T11:30:32;19.60;99.90
46438;DHT22;32137;48.728;9.142;2023-07-24T11:33:05;20.10;99.90
46438;DHT22;32137;48.728;9.142;2023-07-24T11:35:31;20.00;99.90
46438;DHT22;32137;48.728;9.142;2023-07-24T11:37:56;19.60;99.90
46438;DHT22;32137;48.728;9.142;2023-07-24T11:40:29;19.90;99.90
46438;DHT22;32137;48.728;9.142;2023-07-24T11:42:55;20.10;99.90
46438;DHT22;32137;48.728;9.142;2023-07-24T11:45:20;20.90;99.90
46438;DHT22;32137;48.728;9.142;2023-07-24T11:47:47;21.50;99.90
46438;DHT22;32137;48.728;9.142;2023-07-24T11:50:13;22.20;99.90
46438;DHT22;32137;48.728;9.142;2023-07-24T11:55:05;21.20;99.90
46438;DHT22;32137;48.728;9.142;2023-07-24T11:57:31;20.20;99.90
46438;DHT22;32137;48.728;9.142;2023-07-24T11:59:56;20.90;99.90
46438;DHT22;32137;48.728;9.142;2023-07-24T12:02:25;20.10;99.90
46438;DHT22;32137;48.728;9.142;2023-07-24T12:04:54;20.10;99.90
46438;DHT22;32137;48.728;9.142;2023-07-24T12:07:21;20.00;99.90
46438;DHT22;32137;48.728;9.142;2023-07-24T12:09:51;20.80;99.90
46438;DHT22;32137;48.728;9.142;2023-07-24T12:12:17;20.80;99.90
46438;DHT22;32137;48.728;9.142;2023-07-24T12:14:43;20.70;99.90
46438;DHT22;32137;48.728;9.142;2023-07-24T12:17:08;21.20;99.90
46438;DHT22;32137;48.728;9.142;2023-07-24T12:19:37;20.60;99.90
46438;DHT22;32137;48.728;9.142;2023-07-24T12:22:03;20.60;99.90
46438;DHT22;32137;48.728;9.142;2023-07-24T12:24:29;20.20;99.90
46438;DHT22;32137;48.728;9.142;2023-07-24T12:26:55;20.40;99.90
46438;DHT22;32137;48.728;9.142;2023-07-24T12:29:20;21.00;99.90
46438;DHT22;32137;48.728;9.142;2023-07-24T12:31:45;21.70;99.90
46438;DHT22;32137;48.728;9.142;2023-07-24T12:34:11;20.80;99.90
46438;DHT22;32137;48.728;9.142;2023-07-24T12:36:36;21.40;99.90
46438;DHT22;32137;48.728;9.142;2023-07-24T12:39:02;20.80;99.90
46438;DHT22;32137;48.728;9.142;2023-07-24T12:41:27;20.90;99.90
46438;DHT22;32137;48.728;9.142;2023-07-24T12:43:53;20.60;99.90
46438;DHT22;32137;48.728;9.142;2023-07-24T12:46:18;21.10;99.90
46438;DHT22;32137;48.728;9.142;2023-07-24T12:48:44;20.90;99.90
46438;DHT22;32137;48.728;9.142;2023-07-24T12:51:09;21.10;99.90
46438;DHT22;32137;48.728;9.142;2023-07-24T12:53:34;21.20;99.90
46438;DHT22;32137;48.728;9.142;2023-07-24T12:56:00;22.80;99.90
46438;DHT22;32137;48.728;9.142;2023-07-24T12:58:25;22.40;99.90
46438;DHT22;32137;48.728;9.142;2023-07-24T13:00:51;21.70;99.90
46438;DHT22;32137;48.728;9.142;2023-07-24T13:03:16;22.20;99.90
46438;DHT22;32137;48.728;9.142;2023-07-24T13:05:42;22.00;99.90
46438;DHT22;32137;48.728;9.142;2023-07-24T13:08:07;22.00;99.90
46438;DHT22;32137;48.728;9.142;2023-07-24T13:10:33;21.90;99.90
46438;DHT22;32137;48.728;9.142;2023-07-24T13:12:58;22.20;99.90
46438;DHT22;32137;48.728;9.142;2023-07-24T13:15:24;22.50;99.90
46438;DHT22;32137;48.728;9.142;2023-07-24T13:17:49;23.60;99.90
46438;DHT22;32137;48.728;9.142;2023-07-24T13:20:15;22.90;99.90
46438;DHT22;32137;48.728;9.142;2023-07-24T13:22:40;24.60;99.90
46438;DHT22;32137;48.728;9.142;2023-07-24T13:25:08;25.20;99.90
46438;DHT22;32137;48.728;9.142;2023-07-24T13:27:33;26.80;99.90
46438;DHT22;32137;48.728;9.142;2023-07-24T13:29:59;28.30;99.90
46438;DHT22;32137;48.728;9.142;2023-07-24T13:32:24;26.80;99.90
46438;DHT22;32137;48.728;9.142;2023-07-24T13:34:50;26.30;99.90
46438;DHT22;32137;48.728;9.142;2023-07-24T13:37:16;25.30;99.90
46438;DHT22;32137;48.728;9.142;2023-07-24T13:39:41;23.50;99.90
46438;DHT22;32137;48.728;9.142;2023-07-24T13:42:07;22.50;99.90
46438;DHT22;32137;48.728;9.142;2023-07-24T13:44:32;23.10;99.90
46438;DHT22;32137;48.728;9.142;2023-07-24T13:46:57;23.00;99.90
46438;DHT22;32137;48.728;9.142;2023-07-24T13:49:23;21.70;99.90
46438;DHT22;32137;48.728;9.142;2023-07-24T13:51:48;21.90;99.90
46438;DHT22;32137;48.728;9.142;2023-07-24T13:54:14;22.80;99.90
46438;DHT22;32137;48.728;9.142;2023-07-24T13:56:39;22.10;99.90
46438;DHT22;32137;48.728;9.142;2023-07-24T13:59:05;22.90;99.90
46438;DHT22;32137;48.728;9.142;2023-07-24T14:01:30;22.80;99.90
46438;DHT22;32137;48.728;9.142;2023-07-24T14:03:56;24.10;99.90
46438;DHT22;32137;48.728;9.142;2023-07-24T14:06:21;23.40;99.90
46438;DHT22;32137;48.728;9.142;2023-07-24T14:08:48;23.20;99.90
46438;DHT22;32137;48.728;9.142;2023-07-24T14:11:13;22.70;99.90
46438;DHT22;32137;48.728;9.142;2023-07-24T14:13:39;22.80;99.90
46438;DHT22;32137;48.728;9.142;2023-07-24T14:16:04;23.50;99.90
46438;DHT22;32137;48.728;9.142;2023-07-24T14:18:30;23.60;99.90
46438;DHT22;32137;48.728;9.142;2023-07-24T14:20:55;23.10;99.90
46438;DHT22;32137;48.728;9.142;2023-07-24T14:23:21;23.80;99.90
46438;DHT22;32137;48.728;9.142;2023-07-24T14:25:47;23.90;99.90
46438;DHT22;32137;48.728;9.142;2023-07-24T14:28:13;23.70;99.90
46438;DHT22;32137;48.728;9.142;2023-07-24T14:30:38;23.20;99.90
46438;DHT22;32137;48.728;9.142;2023-07-24T14:33:03;22.70;99.90
46438;DHT22;32137;48.728;9.142;2023-07-24T14:35:29;23.20;99.90
46438;DHT22;32137;48.728;9.142;2023-07-24T14:37:55;22.40;99.90
46438;DHT22;32137;48.728;9.142;2023-07-24T14:40:20;22.70;99.90
46438;DHT22;32137;48.728;9.142;2023-07-24T14:42:46;23.20;99.90
46438;DHT22;32137;48.728;9.142;2023-07-24T14:45:11;22.50;99.90
46438;DHT22;32137;48.728;9.142;2023-07-24T14:47:37;22.70;99.90
46438;DHT22;32137;48.728;9.142;2023-07-24T14:50:02;22.10;99.90
46438;DHT22;32137;48.728;9.142;2023-07-24T14:52:28;22.60;99.90
46438;DHT22;32137;48.728;9.142;2023-07-24T14:54:53;22.80;99.90
46438;DHT22;32137;48.728;9.142;2023-07-24T14:57:18;22.60;99.90
46438;DHT22;32137;48.728;9.142;2023-07-24T14:59:44;21.60;99.90
46438;DHT22;32137;48.728;9.142;2023-07-24T15:02:10;22.20;99.90
46438;DHT22;32137;48.728;9.142;2023-07-24T15:04:35;22.60;99.90
46438;DHT22;32137;48.728;9.142;2023-07-24T15:07:01;22.10;99.90
46438;DHT22;32137;48.728;9.142;2023-07-24T15:09:26;22.50;99.90
46438;DHT22;32137;48.728;9.142;2023-07-24T15:11:51;22.20;99.90
46438;DHT22;32137;48.728;9.142;2023-07-24T15:14:17;22.30;99.90
46438;DHT22;32137;48.728;9.142;2023-07-24T15:16:42;22.10;99.90
46438;DHT22;32137;48.728;9.142;2023-07-24T15:19:08;21.80;99.90
46438;DHT22;32137;48.728;9.142;2023-07-24T15:21:33;22.10;99.90
46438;DHT22;32137;48.728;9.142;2023-07-24T15:23:59;22.20;99.90
46438;DHT22;32137;48.728;9.142;2023-07-24T15:26:24;21.90;99.90
46438;DHT22;32137;48.728;9.142;2023-07-24T15:28:50;21.70;99.90
46438;DHT22;32137;48.728;9.142;2023-07-24T15:31:15;21.50;99.90
46438;DHT22;32137;48.728;9.142;2023-07-24T15:33:40;21.60;99.90